Falmouth, Michigan
Current Conditions -  °F | °C
As of 9:35 AM on Tuesday 27 Jan 2015 (Local Time) from KCAD Reporting Station
Clear Clear  
Wind Chill:   Ceiling: Unl
Heat Index: 14°   Visibility: 10mi
Dew Point: 10°   Wind: 5mph
Humidity: 84%   Direction: 50°NE
Pressure: 30.11"   Gusts: NA
Location:  44.24°N, 85.09°W
Report Text: KCAD 271435Z AUTO 05004KT 10SM CLR M10/M12 A3011 RMK AO2 T10981120
Loading
Personal Weather Stations






























Interactive Weather Map New forecast layout! Learn more

10-Day Weather Forecast

Advertisements
Track Severe Weather on mobile